sensor_id;sensor_type;location;lat;lon;timestamp;temperature;humidity
16578;DHT22;8401;52.528;13.340;2023-05-29T00:02:22;16.20;99.90
16578;DHT22;8401;52.528;13.340;2023-05-29T00:04:48;16.20;99.90
16578;DHT22;8401;52.528;13.340;2023-05-29T00:07:14;16.30;99.90
16578;DHT22;8401;52.528;13.340;2023-05-29T00:09:39;16.10;99.90
16578;DHT22;8401;52.528;13.340;2023-05-29T00:12:05;16.30;99.90
16578;DHT22;8401;52.528;13.340;2023-05-29T00:14:31;16.40;99.90
16578;DHT22;8401;52.528;13.340;2023-05-29T00:16:57;16.30;99.90
16578;DHT22;8401;52.528;13.340;2023-05-29T00:19:22;16.10;99.90
16578;DHT22;8401;52.528;13.340;2023-05-29T00:21:50;16.10;99.90
16578;DHT22;8401;52.528;13.340;2023-05-29T00:24:16;16.30;99.90
16578;DHT22;8401;52.528;13.340;2023-05-29T00:26:42;16.10;99.90
16578;DHT22;8401;52.528;13.340;2023-05-29T00:29:08;16.00;99.90
16578;DHT22;8401;52.528;13.340;2023-05-29T00:31:34;15.90;99.90
16578;DHT22;8401;52.528;13.340;2023-05-29T00:34:01;16.00;99.90
16578;DHT22;8401;52.528;13.340;2023-05-29T00:36:26;16.00;99.90
16578;DHT22;8401;52.528;13.340;2023-05-29T00:38:54;16.10;99.90
16578;DHT22;8401;52.528;13.340;2023-05-29T00:41:19;15.90;99.90
16578;DHT22;8401;52.528;13.340;2023-05-29T00:43:45;15.80;99.90
16578;DHT22;8401;52.528;13.340;2023-05-29T00:46:13;15.70;99.90
16578;DHT22;8401;52.528;13.340;2023-05-29T00:48:40;15.60;99.90
16578;DHT22;8401;52.528;13.340;2023-05-29T00:51:07;15.60;99.90
16578;DHT22;8401;52.528;13.340;2023-05-29T00:53:34;15.60;99.90
16578;DHT22;8401;52.528;13.340;2023-05-29T00:56:00;15.70;99.90
16578;DHT22;8401;52.528;13.340;2023-05-29T00:58:26;15.60;99.90
16578;DHT22;8401;52.528;13.340;2023-05-29T01:00:52;15.50;99.90
16578;DHT22;8401;52.528;13.340;2023-05-29T01:03:19;15.50;99.90
16578;DHT22;8401;52.528;13.340;2023-05-29T01:05:45;15.50;99.90
16578;DHT22;8401;52.528;13.340;2023-05-29T01:08:12;15.40;99.90
16578;DHT22;8401;52.528;13.340;2023-05-29T01:10:38;15.40;99.90
16578;DHT22;8401;52.528;13.340;2023-05-29T01:13:12;15.40;99.90
16578;DHT22;8401;52.528;13.340;2023-05-29T01:16:04;15.30;99.90
16578;DHT22;8401;52.528;13.340;2023-05-29T01:18:51;15.30;99.90
16578;DHT22;8401;52.528;13.340;2023-05-29T01:21:54;15.20;99.90
16578;DHT22;8401;52.528;13.340;2023-05-29T01:24:38;15.30;99.90
16578;DHT22;8401;52.528;13.340;2023-05-29T01:27:10;15.20;99.90
16578;DHT22;8401;52.528;13.340;2023-05-29T01:29:39;15.20;99.90
16578;DHT22;8401;52.528;13.340;2023-05-29T01:32:06;15.10;99.90
16578;DHT22;8401;52.528;13.340;2023-05-29T01:34:32;15.10;99.90
16578;DHT22;8401;52.528;13.340;2023-05-29T01:36:58;15.00;99.90
16578;DHT22;8401;52.528;13.340;2023-05-29T01:39:24;15.00;99.90
16578;DHT22;8401;52.528;13.340;2023-05-29T01:41:51;14.90;99.90
16578;DHT22;8401;52.528;13.340;2023-05-29T01:44:17;14.90;99.90
16578;DHT22;8401;52.528;13.340;2023-05-29T01:46:43;14.80;99.90
16578;DHT22;8401;52.528;13.340;2023-05-29T01:49:11;14.80;99.90
16578;DHT22;8401;52.528;13.340;2023-05-29T01:51:40;14.70;99.90
16578;DHT22;8401;52.528;13.340;2023-05-29T01:54:06;14.50;99.90
16578;DHT22;8401;52.528;13.340;2023-05-29T01:56:32;14.50;99.90
16578;DHT22;8401;52.528;13.340;2023-05-29T01:58:59;14.50;99.90
16578;DHT22;8401;52.528;13.340;2023-05-29T02:01:26;14.50;99.90
16578;DHT22;8401;52.528;13.340;2023-05-29T02:03:52;14.50;99.90
16578;DHT22;8401;52.528;13.340;2023-05-29T02:06:17;14.40;99.90
16578;DHT22;8401;52.528;13.340;2023-05-29T02:08:43;14.50;99.90
16578;DHT22;8401;52.528;13.340;2023-05-29T02:11:09;14.40;99.90
16578;DHT22;8401;52.528;13.340;2023-05-29T02:13:34;14.40;99.90
16578;DHT22;8401;52.528;13.340;2023-05-29T02:16:00;14.30;99.90
16578;DHT22;8401;52.528;13.340;2023-05-29T02:18:26;14.30;99.90
16578;DHT22;8401;52.528;13.340;2023-05-29T02:20:52;14.20;99.90
16578;DHT22;8401;52.528;13.340;2023-05-29T02:23:17;14.20;99.90
16578;DHT22;8401;52.528;13.340;2023-05-29T02:25:44;14.10;99.90
16578;DHT22;8401;52.528;13.340;2023-05-29T02:28:10;14.10;99.90
16578;DHT22;8401;52.528;13.340;2023-05-29T02:30:36;14.00;99.90
16578;DHT22;8401;52.528;13.340;2023-05-29T02:33:02;14.10;99.90
16578;DHT22;8401;52.528;13.340;2023-05-29T02:35:28;14.10;99.90
16578;DHT22;8401;52.528;13.340;2023-05-29T02:37:53;14.10;99.90
16578;DHT22;8401;52.528;13.340;2023-05-29T02:40:19;14.00;99.90
16578;DHT22;8401;52.528;13.340;2023-05-29T02:42:46;14.00;99.90
16578;DHT22;8401;52.528;13.340;2023-05-29T02:45:12;14.10;99.90
16578;DHT22;8401;52.528;13.340;2023-05-29T02:47:38;14.10;99.90
16578;DHT22;8401;52.528;13.340;2023-05-29T02:50:04;14.00;99.90
16578;DHT22;8401;52.528;13.340;2023-05-29T02:52:31;13.90;99.90
16578;DHT22;8401;52.528;13.340;2023-05-29T02:54:57;13.90;99.90
16578;DHT22;8401;52.528;13.340;2023-05-29T02:57:24;13.90;99.90
16578;DHT22;8401;52.528;13.340;2023-05-29T02:59:50;13.90;99.90
16578;DHT22;8401;52.528;13.340;2023-05-29T03:02:17;13.80;99.90
16578;DHT22;8401;52.528;13.340;2023-05-29T03:04:43;13.80;99.90
16578;DHT22;8401;52.528;13.340;2023-05-29T03:07:09;13.80;99.90
16578;DHT22;8401;52.528;13.340;2023-05-29T03:09:35;13.80;99.90
16578;DHT22;8401;52.528;13.340;2023-05-29T03:12:01;13.80;99.90
16578;DHT22;8401;52.528;13.340;2023-05-29T03:14:27;13.70;99.90
16578;DHT22;8401;52.528;13.340;2023-05-29T03:16:53;13.60;99.90
16578;DHT22;8401;52.528;13.340;2023-05-29T03:19:19;13.50;99.90
16578;DHT22;8401;52.528;13.340;2023-05-29T03:21:45;13.50;99.90
16578;DHT22;8401;52.528;13.340;2023-05-29T03:24:11;13.40;99.90
16578;DHT22;8401;52.528;13.340;2023-05-29T03:26:39;13.50;99.90
16578;DHT22;8401;52.528;13.340;2023-05-29T03:29:04;13.40;99.90
16578;DHT22;8401;52.528;13.340;2023-05-29T03:31:31;13.40;99.90
16578;DHT22;8401;52.528;13.340;2023-05-29T03:33:57;13.50;99.90
16578;DHT22;8401;52.528;13.340;2023-05-29T03:36:23;13.50;99.90
16578;DHT22;8401;52.528;13.340;2023-05-29T03:38:49;13.50;99.90
16578;DHT22;8401;52.528;13.340;2023-05-29T03:41:14;13.50;99.90
16578;DHT22;8401;52.528;13.340;2023-05-29T03:43:40;13.50;99.90
16578;DHT22;8401;52.528;13.340;2023-05-29T03:46:06;13.50;99.90
16578;DHT22;8401;52.528;13.340;2023-05-29T03:48:31;13.40;99.90
16578;DHT22;8401;52.528;13.340;2023-05-29T03:50:57;13.50;99.90
16578;DHT22;8401;52.528;13.340;2023-05-29T03:53:26;13.60;99.90
16578;DHT22;8401;52.528;13.340;2023-05-29T03:55:51;13.70;99.90
16578;DHT22;8401;52.528;13.340;2023-05-29T03:58:17;13.80;99.90
16578;DHT22;8401;52.528;13.340;2023-05-29T04:00:43;13.80;99.90
16578;DHT22;8401;52.528;13.340;2023-05-29T04:03:08;13.80;99.90
16578;DHT22;8401;52.528;13.340;2023-05-29T04:05:34;13.90;99.90
16578;DHT22;8401;52.528;13.340;2023-05-29T04:08:00;13.90;99.90
16578;DHT22;8401;52.528;13.340;2023-05-29T04:10:26;13.90;99.90
16578;DHT22;8401;52.528;13.340;2023-05-29T04:12:52;13.80;99.90
16578;DHT22;8401;52.528;13.340;2023-05-29T04:15:18;13.90;99.90
16578;DHT22;8401;52.528;13.340;2023-05-29T04:17:43;13.80;99.90
16578;DHT22;8401;52.528;13.340;2023-05-29T04:20:09;13.80;99.90
16578;DHT22;8401;52.528;13.340;2023-05-29T04:22:38;13.90;99.90
16578;DHT22;8401;52.528;13.340;2023-05-29T04:25:04;13.90;99.90
16578;DHT22;8401;52.528;13.340;2023-05-29T04:27:30;14.00;99.90
16578;DHT22;8401;52.528;13.340;2023-05-29T04:29:58;14.10;99.90
16578;DHT22;8401;52.528;13.340;2023-05-29T04:32:24;14.10;99.90
16578;DHT22;8401;52.528;13.340;2023-05-29T04:34:50;14.20;99.90
16578;DHT22;8401;52.528;13.340;2023-05-29T04:37:17;14.20;99.90
16578;DHT22;8401;52.528;13.340;2023-05-29T04:39:43;14.30;99.90
16578;DHT22;8401;52.528;13.340;2023-05-29T04:42:09;14.30;99.90
16578;DHT22;8401;52.528;13.340;2023-05-29T04:44:35;14.30;99.90
16578;DHT22;8401;52.528;13.340;2023-05-29T04:47:00;14.40;99.90
16578;DHT22;8401;52.528;13.340;2023-05-29T04:49:29;14.50;99.90
16578;DHT22;8401;52.528;13.340;2023-05-29T04:51:54;14.60;99.90
16578;DHT22;8401;52.528;13.340;2023-05-29T04:54:22;14.70;99.90
16578;DHT22;8401;52.528;13.340;2023-05-29T04:56:48;14.70;99.90
16578;DHT22;8401;52.528;13.340;2023-05-29T04:59:14;14.80;99.90
16578;DHT22;8401;52.528;13.340;2023-05-29T05:01:39;14.90;99.90
16578;DHT22;8401;52.528;13.340;2023-05-29T05:04:08;14.90;99.90
16578;DHT22;8401;52.528;13.340;2023-05-29T05:06:34;15.10;99.90
16578;DHT22;8401;52.528;13.340;2023-05-29T05:08:59;15.10;99.90
16578;DHT22;8401;52.528;13.340;2023-05-29T05:11:26;15.10;99.90
16578;DHT22;8401;52.528;13.340;2023-05-29T05:13:52;15.10;99.90
16578;DHT22;8401;52.528;13.340;2023-05-29T05:16:17;15.10;99.90
16578;DHT22;8401;52.528;13.340;2023-05-29T05:18:44;15.10;99.90
16578;DHT22;8401;52.528;13.340;2023-05-29T05:21:09;15.10;99.90
16578;DHT22;8401;52.528;13.340;2023-05-29T05:23:36;15.20;99.90
16578;DHT22;8401;52.528;13.340;2023-05-29T05:26:01;15.20;99.90
16578;DHT22;8401;52.528;13.340;2023-05-29T05:28:27;15.30;99.90
16578;DHT22;8401;52.528;13.340;2023-05-29T05:30:53;15.30;99.90
16578;DHT22;8401;52.528;13.340;2023-05-29T05:33:18;15.50;99.90
16578;DHT22;8401;52.528;13.340;2023-05-29T05:35:44;15.60;99.90
16578;DHT22;8401;52.528;13.340;2023-05-29T05:38:10;15.60;99.90
16578;DHT22;8401;52.528;13.340;2023-05-29T05:40:36;15.70;99.90
16578;DHT22;8401;52.528;13.340;2023-05-29T05:43:01;15.60;99.90
16578;DHT22;8401;52.528;13.340;2023-05-29T05:45:27;15.60;99.90
16578;DHT22;8401;52.528;13.340;2023-05-29T05:47:52;15.80;99.90
16578;DHT22;8401;52.528;13.340;2023-05-29T05:50:18;15.70;99.90
16578;DHT22;8401;52.528;13.340;2023-05-29T05:52:44;15.80;99.90
16578;DHT22;8401;52.528;13.340;2023-05-29T05:55:10;15.90;99.90
16578;DHT22;8401;52.528;13.340;2023-05-29T05:57:36;16.00;99.90
16578;DHT22;8401;52.528;13.340;2023-05-29T06:00:05;16.10;99.90
16578;DHT22;8401;52.528;13.340;2023-05-29T06:02:40;16.20;99.90
16578;DHT22;8401;52.528;13.340;2023-05-29T06:05:08;16.20;99.90
16578;DHT22;8401;52.528;13.340;2023-05-29T06:07:34;16.20;99.90
16578;DHT22;8401;52.528;13.340;2023-05-29T06:10:01;16.20;99.90
16578;DHT22;8401;52.528;13.340;2023-05-29T06:12:26;16.30;99.90
16578;DHT22;8401;52.528;13.340;2023-05-29T06:14:52;16.30;99.90
16578;DHT22;8401;52.528;13.340;2023-05-29T06:17:18;16.40;99.90
16578;DHT22;8401;52.528;13.340;2023-05-29T06:19:44;16.40;99.90
16578;DHT22;8401;52.528;13.340;2023-05-29T06:22:09;16.60;99.90
16578;DHT22;8401;52.528;13.340;2023-05-29T06:24:35;17.00;99.90
16578;DHT22;8401;52.528;13.340;2023-05-29T06:27:01;17.10;99.90
16578;DHT22;8401;52.528;13.340;2023-05-29T06:29:27;17.10;99.90
16578;DHT22;8401;52.528;13.340;2023-05-29T06:31:52;17.10;99.90
16578;DHT22;8401;52.528;13.340;2023-05-29T06:34:18;17.20;99.90
16578;DHT22;8401;52.528;13.340;2023-05-29T06:36:44;17.10;99.90
16578;DHT22;8401;52.528;13.340;2023-05-29T06:39:09;17.10;99.90
16578;DHT22;8401;52.528;13.340;2023-05-29T06:41:35;17.40;99.90
16578;DHT22;8401;52.528;13.340;2023-05-29T06:44:01;17.50;99.90
16578;DHT22;8401;52.528;13.340;2023-05-29T06:46:27;17.50;99.90
16578;DHT22;8401;52.528;13.340;2023-05-29T06:48:52;17.80;99.90
16578;DHT22;8401;52.528;13.340;2023-05-29T06:51:18;17.70;99.90
16578;DHT22;8401;52.528;13.340;2023-05-29T06:53:44;17.70;99.90
16578;DHT22;8401;52.528;13.340;2023-05-29T06:56:09;17.80;99.90
16578;DHT22;8401;52.528;13.340;2023-05-29T06:58:35;18.10;99.90
16578;DHT22;8401;52.528;13.340;2023-05-29T07:01:01;18.40;99.90
16578;DHT22;8401;52.528;13.340;2023-05-29T07:03:27;18.70;99.50
16578;DHT22;8401;52.528;13.340;2023-05-29T07:05:53;19.20;99.00
16578;DHT22;8401;52.528;13.340;2023-05-29T07:08:19;19.20;98.30
16578;DHT22;8401;52.528;13.340;2023-05-29T07:10:45;18.80;98.80
16578;DHT22;8401;52.528;13.340;2023-05-29T07:13:14;18.90;98.80
16578;DHT22;8401;52.528;13.340;2023-05-29T07:15:40;19.30;98.10
16578;DHT22;8401;52.528;13.340;2023-05-29T07:18:06;19.50;97.80
16578;DHT22;8401;52.528;13.340;2023-05-29T07:20:31;19.80;97.50
16578;DHT22;8401;52.528;13.340;2023-05-29T07:22:57;19.70;97.30
16578;DHT22;8401;52.528;13.340;2023-05-29T07:25:23;19.70;97.10
16578;DHT22;8401;52.528;13.340;2023-05-29T07:27:48;19.70;96.70
16578;DHT22;8401;52.528;13.340;2023-05-29T07:30:14;20.30;95.70
16578;DHT22;8401;52.528;13.340;2023-05-29T07:32:40;20.50;94.80
16578;DHT22;8401;52.528;13.340;2023-05-29T07:35:06;21.20;93.80
16578;DHT22;8401;52.528;13.340;2023-05-29T07:37:32;21.80;93.10
16578;DHT22;8401;52.528;13.340;2023-05-29T07:39:58;21.60;93.00
16578;DHT22;8401;52.528;13.340;2023-05-29T07:42:23;21.50;92.60
16578;DHT22;8401;52.528;13.340;2023-05-29T07:44:49;21.70;91.80
16578;DHT22;8401;52.528;13.340;2023-05-29T07:47:15;21.60;92.50
16578;DHT22;8401;52.528;13.340;2023-05-29T07:49:41;21.80;92.80
16578;DHT22;8401;52.528;13.340;2023-05-29T07:52:06;21.80;92.40
16578;DHT22;8401;52.528;13.340;2023-05-29T07:54:32;21.50;92.30
16578;DHT22;8401;52.528;13.340;2023-05-29T07:57:02;20.80;92.10
16578;DHT22;8401;52.528;13.340;2023-05-29T07:59:35;20.60;91.80
16578;DHT22;8401;52.528;13.340;2023-05-29T08:02:01;20.80;92.10
16578;DHT22;8401;52.528;13.340;2023-05-29T08:04:28;22.40;91.20
16578;DHT22;8401;52.528;13.340;2023-05-29T08:06:54;22.60;90.50
16578;DHT22;8401;52.528;13.340;2023-05-29T08:09:20;22.00;90.60
16578;DHT22;8401;52.528;13.340;2023-05-29T08:11:46;21.10;91.90
16578;DHT22;8401;52.528;13.340;2023-05-29T08:14:15;21.90;91.60
16578;DHT22;8401;52.528;13.340;2023-05-29T08:16:42;22.10;91.30
16578;DHT22;8401;52.528;13.340;2023-05-29T08:19:08;22.30;90.70
16578;DHT22;8401;52.528;13.340;2023-05-29T08:21:33;22.80;90.20
16578;DHT22;8401;52.528;13.340;2023-05-29T08:23:59;24.60;88.60
16578;DHT22;8401;52.528;13.340;2023-05-29T08:26:26;24.50;86.60
16578;DHT22;8401;52.528;13.340;2023-05-29T08:28:52;24.70;85.90
16578;DHT22;8401;52.528;13.340;2023-05-29T08:31:18;25.80;84.00
16578;DHT22;8401;52.528;13.340;2023-05-29T08:33:44;25.00;82.50
16578;DHT22;8401;52.528;13.340;2023-05-29T08:36:10;24.80;83.60
16578;DHT22;8401;52.528;13.340;2023-05-29T08:38:36;25.10;84.10
16578;DHT22;8401;52.528;13.340;2023-05-29T08:41:02;27.70;80.90
16578;DHT22;8401;52.528;13.340;2023-05-29T08:43:32;27.70;77.10
16578;DHT22;8401;52.528;13.340;2023-05-29T08:46:02;27.60;78.60
16578;DHT22;8401;52.528;13.340;2023-05-29T08:48:29;27.20;77.10
16578;DHT22;8401;52.528;13.340;2023-05-29T08:50:57;26.50;78.10
16578;DHT22;8401;52.528;13.340;2023-05-29T08:53:24;25.50;79.20
16578;DHT22;8401;52.528;13.340;2023-05-29T08:55:51;25.00;80.70
16578;DHT22;8401;52.528;13.340;2023-05-29T08:58:19;24.30;79.30
16578;DHT22;8401;52.528;13.340;2023-05-29T09:00:46;22.90;82.90
16578;DHT22;8401;52.528;13.340;2023-05-29T09:03:12;23.80;84.10
16578;DHT22;8401;52.528;13.340;2023-05-29T09:05:42;25.50;80.90
16578;DHT22;8401;52.528;13.340;2023-05-29T09:08:10;26.30;78.40
16578;DHT22;8401;52.528;13.340;2023-05-29T09:10:39;25.50;79.30
16578;DHT22;8401;52.528;13.340;2023-05-29T09:13:06;25.30;79.30
16578;DHT22;8401;52.528;13.340;2023-05-29T09:15:32;25.30;80.00
16578;DHT22;8401;52.528;13.340;2023-05-29T09:17:59;26.80;79.20
16578;DHT22;8401;52.528;13.340;2023-05-29T09:20:26;27.50;77.80
16578;DHT22;8401;52.528;13.340;2023-05-29T09:23:00;27.80;77.10
16578;DHT22;8401;52.528;13.340;2023-05-29T09:25:28;27.40;76.80
16578;DHT22;8401;52.528;13.340;2023-05-29T09:28:05;29.10;74.90
16578;DHT22;8401;52.528;13.340;2023-05-29T09:33:03;28.10;72.90
16578;DHT22;8401;52.528;13.340;2023-05-29T09:35:37;27.30;75.40
16578;DHT22;8401;52.528;13.340;2023-05-29T09:38:03;27.30;75.70
16578;DHT22;8401;52.528;13.340;2023-05-29T09:40:31;26.10;75.60
16578;DHT22;8401;52.528;13.340;2023-05-29T09:45:30;25.10;77.50
16578;DHT22;8401;52.528;13.340;2023-05-29T09:47:56;24.30;78.80
16578;DHT22;8401;52.528;13.340;2023-05-29T09:50:26;25.10;77.90
16578;DHT22;8401;52.528;13.340;2023-05-29T09:52:53;24.80;78.40
16578;DHT22;8401;52.528;13.340;2023-05-29T09:55:23;25.50;77.40
16578;DHT22;8401;52.528;13.340;2023-05-29T09:57:49;24.90;78.10
16578;DHT22;8401;52.528;13.340;2023-05-29T10:00:16;24.70;78.60
16578;DHT22;8401;52.528;13.340;2023-05-29T10:02:42;24.20;79.30
16578;DHT22;8401;52.528;13.340;2023-05-29T10:05:09;24.30;78.80
16578;DHT22;8401;52.528;13.340;2023-05-29T10:07:37;25.30;78.40
16578;DHT22;8401;52.528;13.340;2023-05-29T10:10:06;27.20;75.90
16578;DHT22;8401;52.528;13.340;2023-05-29T10:12:45;26.80;75.70
16578;DHT22;8401;52.528;13.340;2023-05-29T10:15:14;25.30;75.50
16578;DHT22;8401;52.528;13.340;2023-05-29T10:17:53;24.90;77.20
16578;DHT22;8401;52.528;13.340;2023-05-29T10:20:22;24.30;75.30
16578;DHT22;8401;52.528;13.340;2023-05-29T10:22:50;24.70;75.50
16578;DHT22;8401;52.528;13.340;2023-05-29T10:25:20;25.50;74.70
16578;DHT22;8401;52.528;13.340;2023-05-29T10:27:49;25.90;74.60
16578;DHT22;8401;52.528;13.340;2023-05-29T10:36:04;26.90;70.70
16578;DHT22;8401;52.528;13.340;2023-05-29T10:38:32;27.20;70.70
16578;DHT22;8401;52.528;13.340;2023-05-29T10:43:59;26.40;70.60
16578;DHT22;8401;52.528;13.340;2023-05-29T10:49:17;26.30;66.00
16578;DHT22;8401;52.528;13.340;2023-05-29T10:51:43;27.00;71.60
16578;DHT22;8401;52.528;13.340;2023-05-29T10:54:10;28.00;71.00
16578;DHT22;8401;52.528;13.340;2023-05-29T10:56:36;30.60;69.70
16578;DHT22;8401;52.528;13.340;2023-05-29T10:59:02;30.20;68.00
16578;DHT22;8401;52.528;13.340;2023-05-29T11:01:29;30.70;67.80
16578;DHT22;8401;52.528;13.340;2023-05-29T11:06:41;27.10;70.00
16578;DHT22;8401;52.528;13.340;2023-05-29T11:09:29;26.40;71.20
16578;DHT22;8401;52.528;13.340;2023-05-29T11:12:24;25.00;72.60
16578;DHT22;8401;52.528;13.340;2023-05-29T11:15:10;24.20;72.80
16578;DHT22;8401;52.528;13.340;2023-05-29T11:20:07;25.50;70.90
16578;DHT22;8401;52.528;13.340;2023-05-29T11:25:14;26.60;69.40
16578;DHT22;8401;52.528;13.340;2023-05-29T11:27:41;25.10;71.40
16578;DHT22;8401;52.528;13.340;2023-05-29T11:30:08;24.00;73.40
16578;DHT22;8401;52.528;13.340;2023-05-29T11:32:36;24.30;73.40
16578;DHT22;8401;52.528;13.340;2023-05-29T11:35:08;24.30;73.40
16578;DHT22;8401;52.528;13.340;2023-05-29T11:37:35;23.50;75.20
16578;DHT22;8401;52.528;13.340;2023-05-29T11:40:06;23.30;75.00
16578;DHT22;8401;52.528;13.340;2023-05-29T11:42:33;24.40;74.00
16578;DHT22;8401;52.528;13.340;2023-05-29T11:45:12;25.80;73.10
16578;DHT22;8401;52.528;13.340;2023-05-29T11:47:57;26.30;70.00
16578;DHT22;8401;52.528;13.340;2023-05-29T11:50:27;26.90;70.10
16578;DHT22;8401;52.528;13.340;2023-05-29T11:52:55;28.00;68.10
16578;DHT22;8401;52.528;13.340;2023-05-29T11:55:22;28.70;67.60
16578;DHT22;8401;52.528;13.340;2023-05-29T11:57:48;26.60;69.30
16578;DHT22;8401;52.528;13.340;2023-05-29T12:00:15;25.70;71.90
16578;DHT22;8401;52.528;13.340;2023-05-29T12:02:42;25.50;71.90
16578;DHT22;8401;52.528;13.340;2023-05-29T12:05:09;24.80;73.30
16578;DHT22;8401;52.528;13.340;2023-05-29T12:07:35;24.10;74.70
16578;DHT22;8401;52.528;13.340;2023-05-29T12:10:14;25.30;73.00
16578;DHT22;8401;52.528;13.340;2023-05-29T12:12:40;25.90;72.20
16578;DHT22;8401;52.528;13.340;2023-05-29T12:15:07;25.50;71.90
16578;DHT22;8401;52.528;13.340;2023-05-29T12:17:34;25.70;72.50
16578;DHT22;8401;52.528;13.340;2023-05-29T12:20:01;25.80;72.70
16578;DHT22;8401;52.528;13.340;2023-05-29T12:22:36;25.40;72.80
16578;DHT22;8401;52.528;13.340;2023-05-29T12:25:09;24.60;73.40
16578;DHT22;8401;52.528;13.340;2023-05-29T12:27:42;24.60;73.70
16578;DHT22;8401;52.528;13.340;2023-05-29T12:30:12;24.20;73.60
16578;DHT22;8401;52.528;13.340;2023-05-29T12:32:41;24.00;73.10
16578;DHT22;8401;52.528;13.340;2023-05-29T12:35:17;24.00;72.80
16578;DHT22;8401;52.528;13.340;2023-05-29T12:37:44;24.40;72.30
16578;DHT22;8401;52.528;13.340;2023-05-29T12:40:13;24.40;71.50
16578;DHT22;8401;52.528;13.340;2023-05-29T12:42:40;24.50;71.80
16578;DHT22;8401;52.528;13.340;2023-05-29T12:45:07;24.70;71.70
16578;DHT22;8401;52.528;13.340;2023-05-29T12:47:33;23.90;72.50
16578;DHT22;8401;52.528;13.340;2023-05-29T12:50:04;23.80;72.60
16578;DHT22;8401;52.528;13.340;2023-05-29T12:52:29;23.80;72.70
16578;DHT22;8401;52.528;13.340;2023-05-29T12:54:55;23.90;74.00
16578;DHT22;8401;52.528;13.340;2023-05-29T12:57:21;23.80;75.00
16578;DHT22;8401;52.528;13.340;2023-05-29T12:59:47;23.80;73.70
16578;DHT22;8401;52.528;13.340;2023-05-29T13:02:13;24.30;74.00
16578;DHT22;8401;52.528;13.340;2023-05-29T13:04:39;24.80;73.90
16578;DHT22;8401;52.528;13.340;2023-05-29T13:07:05;24.40;73.20
16578;DHT22;8401;52.528;13.340;2023-05-29T13:09:30;24.40;73.00
16578;DHT22;8401;52.528;13.340;2023-05-29T13:11:56;24.20;71.70
16578;DHT22;8401;52.528;13.340;2023-05-29T13:14:22;23.60;72.30
16578;DHT22;8401;52.528;13.340;2023-05-29T13:16:48;23.30;72.90
16578;DHT22;8401;52.528;13.340;2023-05-29T13:19:14;22.90;71.50
16578;DHT22;8401;52.528;13.340;2023-05-29T13:21:39;22.90;72.40
16578;DHT22;8401;52.528;13.340;2023-05-29T13:24:12;22.70;72.10
16578;DHT22;8401;52.528;13.340;2023-05-29T13:26:37;22.80;73.40
16578;DHT22;8401;52.528;13.340;2023-05-29T13:29:03;23.10;74.10
16578;DHT22;8401;52.528;13.340;2023-05-29T13:31:29;23.70;74.80
16578;DHT22;8401;52.528;13.340;2023-05-29T13:33:54;23.90;74.70
16578;DHT22;8401;52.528;13.340;2023-05-29T13:36:20;24.20;74.70
16578;DHT22;8401;52.528;13.340;2023-05-29T13:38:45;24.40;74.30
16578;DHT22;8401;52.528;13.340;2023-05-29T13:41:12;24.60;74.20
16578;DHT22;8401;52.528;13.340;2023-05-29T13:43:37;24.00;73.90
16578;DHT22;8401;52.528;13.340;2023-05-29T13:46:03;24.00;74.60
16578;DHT22;8401;52.528;13.340;2023-05-29T13:48:29;23.50;75.20
16578;DHT22;8401;52.528;13.340;2023-05-29T13:50:54;23.50;75.30
16578;DHT22;8401;52.528;13.340;2023-05-29T13:53:20;23.90;75.50
16578;DHT22;8401;52.528;13.340;2023-05-29T13:55:46;24.40;74.60
16578;DHT22;8401;52.528;13.340;2023-05-29T13:58:11;24.40;73.80
16578;DHT22;8401;52.528;13.340;2023-05-29T14:00:37;24.20;74.00
16578;DHT22;8401;52.528;13.340;2023-05-29T14:03:03;23.70;75.00
16578;DHT22;8401;52.528;13.340;2023-05-29T14:05:29;24.00;74.30
16578;DHT22;8401;52.528;13.340;2023-05-29T14:07:54;23.80;73.90
16578;DHT22;8401;52.528;13.340;2023-05-29T14:10:20;23.30;74.50
16578;DHT22;8401;52.528;13.340;2023-05-29T14:12:46;23.40;74.20
16578;DHT22;8401;52.528;13.340;2023-05-29T14:15:11;23.40;73.70
16578;DHT22;8401;52.528;13.340;2023-05-29T14:17:37;23.40;73.60
16578;DHT22;8401;52.528;13.340;2023-05-29T14:20:03;23.60;73.10
16578;DHT22;8401;52.528;13.340;2023-05-29T14:22:30;23.00;72.90
16578;DHT22;8401;52.528;13.340;2023-05-29T14:24:55;22.80;74.20
16578;DHT22;8401;52.528;13.340;2023-05-29T14:27:21;23.20;74.20
16578;DHT22;8401;52.528;13.340;2023-05-29T14:29:47;24.00;72.80
16578;DHT22;8401;52.528;13.340;2023-05-29T14:32:12;24.50;72.40
16578;DHT22;8401;52.528;13.340;2023-05-29T14:34:38;23.90;72.00
16578;DHT22;8401;52.528;13.340;2023-05-29T14:37:04;23.70;73.90
16578;DHT22;8401;52.528;13.340;2023-05-29T14:39:30;23.80;73.50
16578;DHT22;8401;52.528;13.340;2023-05-29T14:41:55;24.00;72.70
16578;DHT22;8401;52.528;13.340;2023-05-29T14:44:21;24.00;71.80
16578;DHT22;8401;52.528;13.340;2023-05-29T14:46:47;24.00;72.40
16578;DHT22;8401;52.528;13.340;2023-05-29T14:49:12;23.50;72.30
16578;DHT22;8401;52.528;13.340;2023-05-29T14:51:38;24.10;72.70
16578;DHT22;8401;52.528;13.340;2023-05-29T14:54:04;24.10;71.90
16578;DHT22;8401;52.528;13.340;2023-05-29T14:56:30;23.80;71.80
16578;DHT22;8401;52.528;13.340;2023-05-29T14:58:55;23.70;72.30
16578;DHT22;8401;52.528;13.340;2023-05-29T15:01:21;24.10;72.30
16578;DHT22;8401;52.528;13.340;2023-05-29T15:03:47;23.90;71.50
16578;DHT22;8401;52.528;13.340;2023-05-29T15:06:12;23.80;71.30
16578;DHT22;8401;52.528;13.340;2023-05-29T15:08:39;23.70;71.50
16578;DHT22;8401;52.528;13.340;2023-05-29T15:11:05;23.30;71.80
16578;DHT22;8401;52.528;13.340;2023-05-29T15:13:31;22.90;72.20
16578;DHT22;8401;52.528;13.340;2023-05-29T15:15:57;22.30;72.90
16578;DHT22;8401;52.528;13.340;2023-05-29T15:18:28;22.30;74.00
16578;DHT22;8401;52.528;13.340;2023-05-29T15:20:54;23.00;74.00
16578;DHT22;8401;52.528;13.340;2023-05-29T15:23:21;23.10;73.50
16578;DHT22;8401;52.528;13.340;2023-05-29T15:25:50;23.00;74.30
16578;DHT22;8401;52.528;13.340;2023-05-29T15:28:16;23.00;73.70
16578;DHT22;8401;52.528;13.340;2023-05-29T15:30:42;22.90;73.70
16578;DHT22;8401;52.528;13.340;2023-05-29T15:33:07;23.50;73.60
16578;DHT22;8401;52.528;13.340;2023-05-29T15:35:36;23.40;73.40
16578;DHT22;8401;52.528;13.340;2023-05-29T15:38:02;23.40;73.10
16578;DHT22;8401;52.528;13.340;2023-05-29T15:40:28;23.50;73.60
16578;DHT22;8401;52.528;13.340;2023-05-29T15:42:53;23.30;73.70
16578;DHT22;8401;52.528;13.340;2023-05-29T15:45:19;23.20;73.90
16578;DHT22;8401;52.528;13.340;2023-05-29T15:47:45;23.20;73.40
16578;DHT22;8401;52.528;13.340;2023-05-29T15:50:10;23.20;73.50
16578;DHT22;8401;52.528;13.340;2023-05-29T15:52:36;23.70;72.70
16578;DHT22;8401;52.528;13.340;2023-05-29T15:55:02;23.00;73.40